createdAt,value
2018-05-21T00:01:04.119Z,101796.00
2018-05-21T00:04:13.456Z,101792.48
2018-05-21T00:07:16.049Z,101793.52
2018-05-21T00:10:18.688Z,101794.33
2018-05-21T00:13:21.227Z,101789.87
2018-05-21T00:16:23.709Z,101785.55
2018-05-21T00:19:26.217Z,101783.59
2018-05-21T00:22:28.719Z,101780.95
2018-05-21T00:25:31.226Z,101776.70
2018-05-21T00:28:33.806Z,101771.97
2018-05-21T00:31:36.358Z,101764.97
2018-05-21T00:34:38.934Z,101768.34
2018-05-21T00:37:41.497Z,101760.97
2018-05-21T00:40:43.999Z,101764.68
2018-05-21T00:43:46.588Z,101768.91
2018-05-21T00:46:49.135Z,101771.22
2018-05-21T00:49:51.648Z,101774.20
2018-05-21T00:52:54.187Z,101770.84
2018-05-21T00:55:56.687Z,101779.77
2018-05-21T00:58:59.210Z,101774.80
2018-05-21T01:02:01.741Z,101776.13
2018-05-21T01:05:04.259Z,101774.33
2018-05-21T01:08:06.801Z,101773.83
2018-05-21T01:11:09.296Z,101779.03
2018-05-21T01:14:11.809Z,101774.66
2018-05-21T01:17:14.344Z,101780.53
2018-05-21T01:20:16.855Z,101777.39
2018-05-21T01:23:19.411Z,101784.71
2018-05-21T01:26:21.949Z,101786.96
2018-05-21T01:29:24.551Z,101785.63
2018-05-21T01:32:27.084Z,101787.13
2018-05-21T01:35:29.631Z,101790.00
2018-05-21T01:38:32.176Z,101783.18
2018-05-21T01:41:34.739Z,101789.95
2018-05-21T01:44:37.229Z,101793.38
2018-05-21T01:47:39.723Z,101792.97
2018-05-21T01:50:42.217Z,101792.14
2018-05-21T01:53:44.738Z,101788.09
2018-05-21T01:56:47.278Z,101792.97
2018-05-21T01:59:49.799Z,101780.56
2018-05-21T02:02:52.952Z,101776.66
2018-05-21T02:05:55.504Z,101770.44
2018-05-21T02:08:58.012Z,101776.41
2018-05-21T02:12:00.505Z,101782.20
2018-05-21T02:15:03.047Z,101777.22
2018-05-21T02:18:05.568Z,101774.31
2018-05-21T02:21:08.093Z,101773.19
2018-05-21T02:24:10.596Z,101769.86
2018-05-21T02:27:13.118Z,101770.32
2018-05-21T02:30:15.688Z,101775.01
2018-05-21T02:33:18.213Z,101770.89
2018-05-21T02:36:20.723Z,101764.34
2018-05-21T02:39:23.208Z,101767.64
2018-05-21T02:42:25.745Z,101766.55
2018-05-21T02:45:28.271Z,101768.09
2018-05-21T02:48:30.825Z,101767.63
2018-05-21T02:51:33.336Z,101767.64
2018-05-21T02:54:35.900Z,101772.55
2018-05-21T02:57:38.436Z,101770.82
2018-05-21T03:00:40.950Z,101769.09
2018-05-21T03:03:43.427Z,101766.73
2018-05-21T03:06:45.981Z,101768.87
2018-05-21T03:09:48.555Z,101765.56
2018-05-21T03:12:51.052Z,101763.30
2018-05-21T03:15:53.638Z,101764.59
2018-05-21T03:18:56.163Z,101761.56
2018-05-21T03:21:59.211Z,101762.73
2018-05-21T03:25:01.784Z,101767.44
2018-05-21T03:28:04.266Z,101768.27
2018-05-21T03:31:06.764Z,101764.98
2018-05-21T03:34:09.416Z,101765.09
2018-05-21T03:37:11.927Z,101764.39
2018-05-21T03:40:14.478Z,101767.12
2018-05-21T03:43:16.963Z,101772.42
2018-05-21T03:46:19.481Z,101770.22
2018-05-21T03:49:22.017Z,101772.84
2018-05-21T03:52:24.519Z,101773.93
2018-05-21T03:55:27.091Z,101771.75
2018-05-21T04:02:26.123Z,101771.79
2018-05-21T04:05:29.734Z,101774.75
2018-05-21T04:08:32.282Z,101775.02
2018-05-21T04:11:34.882Z,101781.13
2018-05-21T04:14:38.075Z,101778.27
2018-05-21T04:17:40.575Z,101779.84
2018-05-21T04:20:43.126Z,101775.57
2018-05-21T04:23:45.638Z,101779.37
2018-05-21T04:26:48.172Z,101775.92
2018-05-21T04:29:50.684Z,101777.34
2018-05-21T04:32:53.555Z,101780.79
2018-05-21T04:35:56.072Z,101781.80
2018-05-21T04:38:58.610Z,101783.30
2018-05-21T04:42:01.132Z,101784.86
2018-05-21T04:45:03.669Z,101777.06
2018-05-21T04:48:06.154Z,101777.94
2018-05-21T04:51:08.714Z,101783.55
2018-05-21T04:54:11.187Z,101782.33
2018-05-21T04:57:13.680Z,101778.78
2018-05-21T05:00:16.233Z,101779.58
2018-05-21T05:03:18.751Z,101783.69
2018-05-21T05:06:21.294Z,101777.25
2018-05-21T05:09:23.812Z,101777.67
2018-05-21T05:12:26.364Z,101768.08
2018-05-21T05:15:28.868Z,101772.64
2018-05-21T05:18:31.360Z,101766.23
2018-05-21T05:21:33.916Z,101766.17
2018-05-21T05:24:36.402Z,101763.73
2018-05-21T05:27:39.008Z,101763.27
2018-05-21T05:30:41.513Z,101764.90
2018-05-21T05:33:44.069Z,101762.90
2018-05-21T05:36:46.608Z,101765.86
2018-05-21T05:39:49.176Z,101762.06
2018-05-21T05:42:51.679Z,101759.66
2018-05-21T05:45:54.215Z,101757.16
2018-05-21T05:48:56.815Z,101757.85
2018-05-21T05:51:59.317Z,101760.38
2018-05-21T05:55:01.849Z,101755.27
2018-05-21T05:58:04.633Z,101755.23
2018-05-21T06:01:07.154Z,101754.38
2018-05-21T06:04:09.698Z,101757.61
2018-05-21T06:07:12.259Z,101752.11
2018-05-21T06:10:14.793Z,101749.45
2018-05-21T06:13:17.363Z,101751.53
2018-05-21T06:16:20.163Z,101745.23
2018-05-21T06:19:22.698Z,101746.04
2018-05-21T06:22:25.207Z,101742.42
2018-05-21T06:25:27.736Z,101736.02
2018-05-21T06:28:30.288Z,101733.06
2018-05-21T06:31:32.882Z,101735.61
2018-05-21T06:34:35.527Z,101728.74
2018-05-21T06:37:38.148Z,101733.03
2018-05-21T06:40:40.745Z,101726.16
2018-05-21T06:43:44.171Z,101729.34
2018-05-21T06:46:46.773Z,101729.39
2018-05-21T06:49:49.319Z,101733.05
2018-05-21T06:52:51.906Z,101721.53
2018-05-21T06:55:54.490Z,101721.92
2018-05-21T06:58:57.091Z,101723.43
2018-05-21T07:01:59.684Z,101719.55
2018-05-21T07:05:03.923Z,101722.98
2018-05-21T07:08:07.378Z,101718.02
2018-05-21T07:11:10.066Z,101715.51
2018-05-21T07:14:13.520Z,101703.23
2018-05-21T07:17:16.073Z,101708.00
2018-05-21T07:20:18.668Z,101706.54
2018-05-21T07:23:21.207Z,101707.95
2018-05-21T07:26:23.740Z,101700.58
2018-05-21T07:29:26.445Z,101699.16
2018-05-21T07:32:30.105Z,101701.20
2018-05-21T07:35:32.757Z,101692.14
2018-05-21T07:38:35.285Z,101686.77
2018-05-21T07:41:37.998Z,101690.01
2018-05-21T07:44:40.488Z,101681.06
2018-05-21T07:47:43.013Z,101681.75
2018-05-21T07:50:46.116Z,101681.83
2018-05-21T07:53:48.637Z,101676.38
2018-05-21T07:56:51.310Z,101673.81
2018-05-21T07:59:54.113Z,101672.59
2018-05-21T08:02:56.664Z,101679.03
2018-05-21T08:06:00.164Z,101670.75
2018-05-21T08:09:02.758Z,101675.27
2018-05-21T08:12:05.378Z,101659.16
2018-05-21T08:15:07.949Z,101657.55
2018-05-21T08:18:10.484Z,101652.89
2018-05-21T08:21:12.987Z,101647.80
2018-05-21T08:24:15.547Z,101643.95
2018-05-21T08:27:18.119Z,101634.65
2018-05-21T08:30:20.670Z,101636.95
2018-05-21T08:33:23.237Z,101625.82
2018-05-21T08:36:25.900Z,101629.10
2018-05-21T08:39:28.520Z,101627.83
2018-05-21T08:42:31.109Z,101630.55
2018-05-21T08:45:33.723Z,101627.59
2018-05-21T08:48:36.423Z,101621.74
2018-05-21T08:51:39.031Z,101604.91
2018-05-21T08:54:41.579Z,101608.27
2018-05-21T08:57:44.184Z,101604.03
2018-05-21T09:00:46.818Z,101601.64
2018-05-21T09:03:49.418Z,101595.45
2018-05-21T09:06:51.983Z,101594.64
2018-05-21T09:09:54.612Z,101589.14
2018-05-21T09:12:57.245Z,101589.70
2018-05-21T09:16:01.073Z,101586.55
2018-05-21T09:19:04.871Z,101586.12
2018-05-21T09:22:07.437Z,101579.41
2018-05-21T09:25:10.155Z,101581.83
2018-05-21T09:28:12.906Z,101579.16
2018-05-21T09:31:15.538Z,101569.42
2018-05-21T09:34:18.136Z,101581.14
2018-05-21T09:37:21.281Z,101571.30
2018-05-21T09:40:24.017Z,101563.09
2018-05-21T09:43:26.603Z,101564.16
2018-05-21T09:46:29.134Z,101567.27
2018-05-21T09:49:31.697Z,101563.26
2018-05-21T09:52:35.100Z,101556.02
2018-05-21T09:55:37.711Z,101548.36
2018-05-21T09:58:40.265Z,101540.72
2018-05-21T10:01:42.871Z,101552.64
2018-05-21T10:04:46.101Z,101542.27
2018-05-21T10:07:49.661Z,101544.03
2018-05-21T10:10:52.348Z,101527.81
2018-05-21T10:13:54.932Z,101527.70
2018-05-21T10:16:57.616Z,101531.84
2018-05-21T10:20:00.196Z,101529.72
2018-05-21T10:23:02.870Z,101519.39
2018-05-21T10:26:05.537Z,101514.95
2018-05-21T10:29:08.103Z,101503.63
2018-05-21T10:32:10.693Z,101497.25
2018-05-21T10:35:19.357Z,101496.64
2018-05-21T10:38:21.911Z,101485.48
2018-05-21T10:41:24.591Z,101484.83
2018-05-21T10:44:27.166Z,101478.31
2018-05-21T10:47:29.784Z,101480.87
2018-05-21T10:50:32.361Z,101476.72
2018-05-21T10:53:34.903Z,101476.07
2018-05-21T10:56:37.447Z,101466.45
2018-05-21T10:59:40.005Z,101465.59
2018-05-21T11:02:43.159Z,101454.30
2018-05-21T11:05:45.754Z,101447.30
2018-05-21T11:08:48.539Z,101445.84
2018-05-21T11:11:51.072Z,101450.19
2018-05-21T11:14:53.619Z,101451.50
2018-05-21T11:17:56.243Z,101437.84
2018-05-21T11:20:58.830Z,101434.69
2018-05-21T11:24:01.364Z,101433.14
2018-05-21T11:27:03.970Z,101434.40
2018-05-21T11:30:06.525Z,101431.96
2018-05-21T11:33:09.069Z,101422.25
2018-05-21T11:36:11.705Z,101421.02
2018-05-21T11:39:14.258Z,101398.80
2018-05-21T11:42:16.807Z,101412.25
2018-05-21T11:45:19.309Z,101400.94
2018-05-21T11:48:21.934Z,101404.50
2018-05-21T11:51:25.452Z,101399.27
2018-05-21T11:54:28.868Z,101394.15
2018-05-21T11:57:32.621Z,101384.48
2018-05-21T12:00:36.166Z,101379.09
2018-05-21T12:03:39.373Z,101374.36
2018-05-21T12:06:42.144Z,101358.96
2018-05-21T12:09:44.751Z,101366.38
2018-05-21T12:12:47.779Z,101365.58
2018-05-21T12:15:51.316Z,101359.89
2018-05-21T12:18:54.956Z,101359.37
2018-05-21T12:21:57.720Z,101357.14
2018-05-21T12:25:00.503Z,101346.59
2018-05-21T12:28:03.612Z,101349.22
2018-05-21T12:31:07.005Z,101347.34
2018-05-21T12:34:09.554Z,101336.31
2018-05-21T12:37:12.262Z,101332.43
2018-05-21T12:40:14.953Z,101334.00
2018-05-21T12:43:17.626Z,101341.45
2018-05-21T12:46:20.337Z,101332.67
2018-05-21T12:49:23.134Z,101325.58
2018-05-21T12:52:30.851Z,101325.21
2018-05-21T12:55:34.536Z,101320.14
2018-05-21T12:58:37.320Z,101311.42
2018-05-21T13:01:39.923Z,101321.84
2018-05-21T13:04:44.306Z,101311.42
2018-05-21T13:07:46.895Z,101315.80
2018-05-21T13:10:49.583Z,101311.68
2018-05-21T13:13:52.189Z,101309.34
2018-05-21T13:16:54.748Z,101302.70
2018-05-21T13:19:57.315Z,101291.98
2018-05-21T13:22:59.900Z,101283.49
2018-05-21T13:26:02.513Z,101292.60
2018-05-21T13:29:05.094Z,101289.88
2018-05-21T13:32:07.697Z,101285.88
2018-05-21T13:35:10.299Z,101275.55
2018-05-21T13:38:12.918Z,101281.20
2018-05-21T13:41:15.510Z,101270.48
2018-05-21T13:44:18.582Z,101268.73
2018-05-21T13:47:21.551Z,101260.37
2018-05-21T13:50:24.170Z,101244.84
2018-05-21T13:53:26.821Z,101248.44
2018-05-21T13:56:29.412Z,101246.78
2018-05-21T13:59:32.017Z,101242.34
2018-05-21T14:02:34.580Z,101249.91
2018-05-21T14:05:37.197Z,101245.94
2018-05-21T14:08:39.733Z,101240.32
2018-05-21T14:11:42.326Z,101238.93
2018-05-21T14:14:44.898Z,101236.75
2018-05-21T14:17:47.493Z,101236.84
2018-05-21T14:20:50.030Z,101232.17
2018-05-21T14:23:52.608Z,101223.80
2018-05-21T14:26:55.215Z,101226.56
2018-05-21T14:29:57.865Z,101212.38
2018-05-21T14:33:00.472Z,101215.88
2018-05-21T14:36:03.085Z,101201.41
2018-05-21T14:39:05.636Z,101200.41
2018-05-21T14:42:08.221Z,101196.70
2018-05-21T14:45:10.769Z,101194.71
2018-05-21T14:48:13.373Z,101192.25
2018-05-21T14:51:15.920Z,101185.05
2018-05-21T14:54:18.501Z,101188.55
2018-05-21T14:57:21.079Z,101177.18
2018-05-21T15:00:23.686Z,101175.31
2018-05-21T15:03:26.250Z,101172.47
2018-05-21T15:06:28.816Z,101180.74
2018-05-21T15:09:31.511Z,101177.72
2018-05-21T15:12:35.552Z,101172.36
2018-05-21T15:15:38.178Z,101163.69
2018-05-21T15:18:40.704Z,101166.36
2018-05-21T15:21:43.356Z,101163.59
2018-05-21T15:24:47.261Z,101157.83
2018-05-21T15:27:49.898Z,101150.15
2018-05-21T15:30:53.568Z,101153.05
2018-05-21T15:33:56.231Z,101142.11
2018-05-21T15:36:58.762Z,101137.63
2018-05-21T15:40:01.394Z,101138.91
2018-05-21T15:43:03.991Z,101147.92
2018-05-21T15:46:07.503Z,101141.67
2018-05-21T15:49:10.145Z,101139.96
2018-05-21T15:52:12.705Z,101138.73
2018-05-21T15:55:15.322Z,101139.35
2018-05-21T15:58:18.215Z,101136.06
2018-05-21T16:01:20.813Z,101130.53
2018-05-21T16:04:23.529Z,101123.63
2018-05-21T16:07:26.934Z,101122.30
2018-05-21T16:10:29.563Z,101120.31
2018-05-21T16:13:32.575Z,101126.45
2018-05-21T16:16:36.803Z,101124.66
2018-05-21T16:19:40.540Z,101123.91
2018-05-21T16:22:44.637Z,101121.98
2018-05-21T16:25:51.377Z,101123.47
2018-05-21T16:28:54.436Z,101119.09
2018-05-21T16:31:57.018Z,101110.18
2018-05-21T16:34:59.740Z,101111.94
2018-05-21T16:38:02.675Z,101109.48
2018-05-21T16:41:05.409Z,101105.36
2018-05-21T16:44:08.236Z,101104.26
2018-05-21T16:47:10.868Z,101098.11
2018-05-21T16:50:13.494Z,101109.94
2018-05-21T16:53:16.385Z,101098.98
2018-05-21T16:56:19.325Z,101098.38
2018-05-21T16:59:21.889Z,101100.73
2018-05-21T17:02:24.705Z,101102.85
2018-05-21T17:05:27.379Z,101098.23
2018-05-21T17:08:30.091Z,101092.80
2018-05-21T17:11:32.937Z,101091.52
2018-05-21T17:14:35.623Z,101088.81
2018-05-21T17:17:38.275Z,101091.09
2018-05-21T17:20:40.897Z,101092.20
2018-05-21T17:23:43.752Z,101090.60
2018-05-21T17:26:46.442Z,101086.86
2018-05-21T17:29:49.102Z,101095.28
2018-05-21T17:32:51.784Z,101088.38
2018-05-21T17:35:54.412Z,101087.08
2018-05-21T17:38:57.065Z,101085.98
2018-05-21T17:42:01.223Z,101092.58
2018-05-21T17:45:08.091Z,101089.39
2018-05-21T17:48:11.704Z,101088.17
2018-05-21T17:51:14.321Z,101093.72
2018-05-21T17:54:17.003Z,101090.09
2018-05-21T17:57:19.672Z,101090.66
2018-05-21T18:00:22.319Z,101094.59
2018-05-21T18:03:25.800Z,101096.19
2018-05-21T18:06:28.531Z,101093.52
2018-05-21T18:09:31.479Z,101092.99
2018-05-21T18:12:34.207Z,101097.56
2018-05-21T18:15:36.880Z,101095.56
2018-05-21T18:18:40.688Z,101098.26
2018-05-21T18:21:44.128Z,101093.89
2018-05-21T18:24:46.813Z,101089.80
2018-05-21T18:27:50.142Z,101094.42
2018-05-21T18:30:53.211Z,101094.55
2018-05-21T18:33:57.178Z,101091.09
2018-05-21T18:37:01.880Z,101091.92
2018-05-21T18:40:04.571Z,101095.69
2018-05-21T18:43:07.409Z,101090.81
2018-05-21T18:46:12.198Z,101095.20
2018-05-21T18:49:15.101Z,101090.77
2018-05-21T18:52:17.773Z,101099.98
2018-05-21T18:55:22.742Z,101095.31
2018-05-21T18:58:25.553Z,101096.57
2018-05-21T19:01:28.279Z,101090.34
2018-05-21T19:04:30.913Z,101092.37
2018-05-21T19:07:34.465Z,101097.34
2018-05-21T19:10:37.218Z,101100.09
2018-05-21T19:13:39.895Z,101106.98
2018-05-21T19:16:42.734Z,101106.89
2018-05-21T19:19:45.434Z,101114.33
2018-05-21T19:22:48.104Z,101112.50
2018-05-21T19:25:50.788Z,101118.02
2018-05-21T19:28:53.473Z,101115.97
2018-05-21T19:31:56.216Z,101116.45
2018-05-21T19:34:59.314Z,101117.58
2018-05-21T19:38:02.067Z,101113.39
2018-05-21T19:41:04.660Z,101117.52
2018-05-21T19:44:07.463Z,101114.60
2018-05-21T19:47:11.456Z,101110.86
2018-05-21T19:50:14.269Z,101108.08
2018-05-21T19:53:16.900Z,101113.40
2018-05-21T19:56:19.478Z,101113.69
2018-05-21T19:59:22.066Z,101115.15
2018-05-21T20:02:25.497Z,101110.91
2018-05-21T20:05:28.142Z,101111.70
2018-05-21T20:08:30.898Z,101111.13
2018-05-21T20:14:58.374Z,101113.81
2018-05-21T20:18:03.459Z,101114.58
2018-05-21T20:21:07.844Z,101113.98
2018-05-21T20:24:11.676Z,101114.55
2018-05-21T20:27:17.313Z,101107.75
2018-05-21T20:30:22.653Z,101105.53
2018-05-21T20:33:25.302Z,101099.78
2018-05-21T20:36:27.972Z,101101.62
2018-05-21T20:39:30.672Z,101107.59
2018-05-21T20:42:33.346Z,101103.77
2018-05-21T20:45:36.044Z,101105.38
2018-05-21T20:48:38.717Z,101105.28
2018-05-21T20:51:41.494Z,101104.77
2018-05-21T20:54:44.150Z,101103.45
2018-05-21T20:57:46.743Z,101103.01
2018-05-21T21:00:49.411Z,101096.14
2018-05-21T21:03:51.942Z,101097.75
2018-05-21T21:06:54.614Z,101104.52
2018-05-21T21:09:57.309Z,101102.28
2018-05-21T21:12:59.955Z,101104.64
2018-05-21T21:16:03.689Z,101106.82
2018-05-21T21:19:07.683Z,101106.61
2018-05-21T21:22:10.385Z,101105.77
2018-05-21T21:25:13.128Z,101099.59
2018-05-21T21:28:15.723Z,101099.40
2018-05-21T21:31:18.398Z,101097.84
2018-05-21T21:34:21.001Z,101103.43
2018-05-21T21:37:24.708Z,101102.27
2018-05-21T21:40:27.304Z,101097.33
2018-05-21T21:43:29.861Z,101094.22
2018-05-21T21:46:32.512Z,101096.85
2018-05-21T21:49:35.445Z,101090.91
2018-05-21T21:52:38.117Z,101087.22
2018-05-21T21:55:40.723Z,101086.53
2018-05-21T21:58:43.363Z,101076.66
2018-05-21T22:01:46.050Z,101082.70
2018-05-21T22:04:48.646Z,101088.67
2018-05-21T22:07:51.242Z,101085.83
2018-05-21T22:10:53.898Z,101090.95
2018-05-21T22:13:56.522Z,101089.38
2018-05-21T22:16:59.102Z,101092.64
2018-05-21T22:20:01.791Z,101083.24
2018-05-21T22:23:04.362Z,101077.26
2018-05-21T22:26:06.927Z,101082.98
2018-05-21T22:29:09.476Z,101082.17
2018-05-21T22:32:12.077Z,101076.64
2018-05-21T22:35:14.631Z,101070.25
2018-05-21T22:38:17.166Z,101072.55
2018-05-21T22:41:19.812Z,101072.36
2018-05-21T22:44:22.382Z,101061.63
2018-05-21T22:47:27.475Z,101058.50
2018-05-21T22:50:30.909Z,101060.27
2018-05-21T22:53:33.436Z,101059.67
2018-05-21T22:56:36.069Z,101062.38
2018-05-21T22:59:43.159Z,101054.66
2018-05-21T23:02:45.768Z,101058.52
2018-05-21T23:05:56.994Z,101050.55
2018-05-21T23:08:59.527Z,101047.00
2018-05-21T23:12:02.216Z,101041.25
2018-05-21T23:15:04.876Z,101043.05
2018-05-21T23:18:07.494Z,101039.98
2018-05-21T23:21:12.227Z,101041.81
2018-05-21T23:24:15.635Z,101043.95
2018-05-21T23:27:19.344Z,101040.25
2018-05-21T23:30:22.698Z,101042.44
2018-05-21T23:36:36.576Z,101036.79
2018-05-21T23:39:39.191Z,101036.89
2018-05-21T23:42:41.751Z,101035.16
2018-05-21T23:45:44.312Z,101032.55
2018-05-21T23:48:46.928Z,101034.47
2018-05-21T23:51:49.618Z,101030.58
2018-05-21T23:54:52.164Z,101029.53
2018-05-21T23:57:54.706Z,101029.34
